RYR92KQ LFBL-EGSS
Flight info
| Callsign | RYR92KQ |
|---|---|
| Flight time | 1h 2m |
| Altitude | 26000 |
| Route | BALAN DCT BOKNO UN858 VANAD UN874 BAMES UT191 KORIQ DCT KESAX DCT KUNAV Y8 BANVA |
| Aircraft | B738/M-SDE2E3FGHIRWXY/LB1 |
Departure
| Time | 2026-05-07 01:35 |
|---|---|
| Airport | Limoges Airport (LFBL) |
Arrival
| Time | 2026-05-07 02:37 |
|---|---|
| Airport | London Stansted Airport (EGSS) |
| Time | Latitude | Longitude | Altitude | Speed | Heading |
|---|---|---|---|---|---|
| 2026-05-07 01:19 | 45.86193 | 1.17739 | 1283 ft | 0 kts | 303° |
| 2026-05-07 01:27 | 45.86190 | 1.17745 | 1283 ft | 0 kts | 303° |
| 2026-05-07 01:28 | 45.86185 | 1.17755 | 1283 ft | 2 kts | 303° |
| 2026-05-07 01:28 | 45.86177 | 1.17773 | 1286 ft | 2 kts | 303° |
| 2026-05-07 01:28 | 45.86174 | 1.17780 | 1285 ft | 1 kts | 303° |
| 2026-05-07 01:28 | 45.86166 | 1.17798 | 1287 ft | 2 kts | 303° |
| 2026-05-07 01:29 | 45.86162 | 1.17808 | 1287 ft | 1 kts | 292° |
| 2026-05-07 01:29 | 45.86162 | 1.17805 | 1287 ft | 1 kts | 288° |
| 2026-05-07 01:29 | 45.86159 | 1.17814 | 1287 ft | 1 kts | 251° |
| 2026-05-07 01:29 | 45.86161 | 1.17822 | 1287 ft | 0 kts | 184° |
| 2026-05-07 01:30 | 45.86150 | 1.17822 | 1284 ft | 4 kts | 185° |
| 2026-05-07 01:30 | 45.86130 | 1.17810 | 1284 ft | 1 kts | 213° |
| 2026-05-07 01:32 | 45.86126 | 1.17807 | 1284 ft | 5 kts | 213° |
| 2026-05-07 01:32 | 45.86045 | 1.17731 | 1283 ft | 17 kts | 212° |
| 2026-05-07 01:33 | 45.85946 | 1.17638 | 1283 ft | 17 kts | 213° |
| 2026-05-07 01:33 | 45.85852 | 1.17547 | 1281 ft | 16 kts | 213° |
| 2026-05-07 01:33 | 45.85758 | 1.17467 | 1280 ft | 15 kts | 205° |
| 2026-05-07 01:33 | 45.85673 | 1.17380 | 1281 ft | 14 kts | 214° |
| 2026-05-07 01:34 | 45.85601 | 1.17314 | 1279 ft | 10 kts | 213° |
| 2026-05-07 01:34 | 45.85538 | 1.17271 | 1279 ft | 10 kts | 198° |
| 2026-05-07 01:34 | 45.85471 | 1.17245 | 1279 ft | 10 kts | 193° |
| 2026-05-07 01:34 | 45.85410 | 1.17269 | 1280 ft | 9 kts | 139° |
| 2026-05-07 01:35 | 45.85377 | 1.17353 | 1283 ft | 20 kts | 82° |
| 2026-05-07 01:35 | 45.85677 | 1.17658 | 1282 ft | 91 kts | 33° |
| 2026-05-07 01:35 | 45.86398 | 1.18332 | 1292 ft | 153 kts | 33° |
| 2026-05-07 01:35 | 45.87321 | 1.19189 | 1930 ft | 163 kts | 32° |
| 2026-05-07 01:36 | 45.88469 | 1.19634 | 2537 ft | 186 kts | 353° |
| 2026-05-07 01:36 | 45.89664 | 1.18754 | 3134 ft | 207 kts | 319° |
| 2026-05-07 01:36 | 45.90779 | 1.17318 | 3595 ft | 223 kts | 322° |
| 2026-05-07 01:36 | 45.92256 | 1.16448 | 4028 ft | 239 kts | 352° |
| 2026-05-07 01:37 | 45.93985 | 1.16180 | 4457 ft | 261 kts | 356° |
| 2026-05-07 01:37 | 45.95824 | 1.15984 | 5344 ft | 267 kts | 356° |
| 2026-05-07 01:37 | 45.97680 | 1.15795 | 6341 ft | 269 kts | 356° |
| 2026-05-07 01:37 | 45.99559 | 1.15594 | 7249 ft | 273 kts | 355° |
| 2026-05-07 01:38 | 46.01464 | 1.15380 | 8147 ft | 277 kts | 354° |
| 2026-05-07 01:38 | 46.03395 | 1.15153 | 9034 ft | 280 kts | 354° |
| 2026-05-07 01:38 | 46.05352 | 1.14915 | 9914 ft | 285 kts | 354° |
| 2026-05-07 01:38 | 46.07356 | 1.14665 | 10508 ft | 299 kts | 354° |
| 2026-05-07 01:39 | 46.09522 | 1.14388 | 10720 ft | 326 kts | 354° |
| 2026-05-07 01:39 | 46.11859 | 1.14086 | 11037 ft | 345 kts | 354° |
| 2026-05-07 01:39 | 46.14278 | 1.13772 | 11735 ft | 352 kts | 354° |
| 2026-05-07 01:39 | 46.16723 | 1.13480 | 12586 ft | 354 kts | 355° |
| 2026-05-07 01:40 | 46.19189 | 1.13264 | 13433 ft | 356 kts | 356° |
| 2026-05-07 01:40 | 46.21644 | 1.13079 | 14181 ft | 360 kts | 356° |
| 2026-05-07 01:40 | 46.24158 | 1.12893 | 14891 ft | 364 kts | 356° |
| 2026-05-07 01:40 | 46.26697 | 1.12692 | 15630 ft | 367 kts | 355° |
| 2026-05-07 01:41 | 46.29262 | 1.12483 | 16343 ft | 371 kts | 355° |
| 2026-05-07 01:41 | 46.31848 | 1.12271 | 17042 ft | 374 kts | 355° |
| 2026-05-07 01:41 | 46.34466 | 1.12058 | 17733 ft | 378 kts | 355° |
| 2026-05-07 01:41 | 46.37105 | 1.11843 | 18393 ft | 382 kts | 355° |
| 2026-05-07 01:42 | 46.39774 | 1.11626 | 18972 ft | 386 kts | 355° |
| 2026-05-07 01:42 | 46.42469 | 1.11407 | 19549 ft | 389 kts | 355° |
| 2026-05-07 01:42 | 46.45184 | 1.11187 | 20116 ft | 393 kts | 355° |
| 2026-05-07 01:42 | 46.47930 | 1.10964 | 20681 ft | 397 kts | 355° |
| 2026-05-07 01:43 | 46.50701 | 1.10739 | 21235 ft | 401 kts | 355° |
| 2026-05-07 01:43 | 46.53497 | 1.10512 | 21792 ft | 404 kts | 354° |
| 2026-05-07 01:43 | 46.56317 | 1.10283 | 22325 ft | 408 kts | 354° |
| 2026-05-07 01:43 | 46.59163 | 1.10051 | 22832 ft | 412 kts | 354° |
| 2026-05-07 01:44 | 46.62038 | 1.09817 | 23333 ft | 416 kts | 354° |
| 2026-05-07 01:44 | 46.64942 | 1.09581 | 23788 ft | 419 kts | 354° |
| 2026-05-07 01:44 | 46.67863 | 1.09343 | 24261 ft | 422 kts | 354° |
| 2026-05-07 01:44 | 46.70802 | 1.09103 | 24702 ft | 424 kts | 355° |
| 2026-05-07 01:45 | 46.73752 | 1.08863 | 25137 ft | 426 kts | 355° |
| 2026-05-07 01:45 | 46.76713 | 1.08621 | 25656 ft | 426 kts | 355° |
| 2026-05-07 01:45 | 46.79671 | 1.08379 | 26015 ft | 427 kts | 355° |
| 2026-05-07 01:45 | 46.82643 | 1.08136 | 26001 ft | 427 kts | 355° |
| 2026-05-07 01:46 | 46.85594 | 1.07894 | 26005 ft | 423 kts | 355° |
| 2026-05-07 01:46 | 46.88532 | 1.07654 | 26011 ft | 423 kts | 355° |
| 2026-05-07 01:46 | 46.91478 | 1.07411 | 26014 ft | 424 kts | 355° |
| 2026-05-07 01:46 | 46.94429 | 1.07168 | 26018 ft | 425 kts | 355° |
| 2026-05-07 01:47 | 46.97385 | 1.06924 | 26020 ft | 426 kts | 355° |
| 2026-05-07 01:47 | 47.00343 | 1.06679 | 26019 ft | 426 kts | 355° |
| 2026-05-07 01:47 | 47.03302 | 1.06435 | 26015 ft | 426 kts | 355° |
| 2026-05-07 01:47 | 47.06259 | 1.06190 | 26012 ft | 426 kts | 355° |
| 2026-05-07 01:48 | 47.09215 | 1.05945 | 26020 ft | 425 kts | 355° |
| 2026-05-07 01:48 | 47.12170 | 1.05701 | 26015 ft | 425 kts | 355° |
| 2026-05-07 01:48 | 47.15124 | 1.05455 | 26015 ft | 425 kts | 355° |
| 2026-05-07 01:48 | 47.18070 | 1.05211 | 26016 ft | 424 kts | 355° |
| 2026-05-07 01:49 | 47.21013 | 1.04966 | 26016 ft | 424 kts | 355° |
| 2026-05-07 01:49 | 47.22965 | 1.04803 | 26025 ft | 424 kts | 355° |
| 2026-05-07 01:49 | 47.25905 | 1.04558 | 26018 ft | 423 kts | 355° |
| 2026-05-07 01:49 | 47.28848 | 1.04312 | 26022 ft | 423 kts | 355° |
| 2026-05-07 01:50 | 47.31786 | 1.04067 | 26021 ft | 423 kts | 355° |
| 2026-05-07 01:50 | 47.34726 | 1.03821 | 26019 ft | 423 kts | 355° |
| 2026-05-07 01:50 | 47.37667 | 1.03575 | 26022 ft | 423 kts | 355° |
| 2026-05-07 01:50 | 47.40611 | 1.03328 | 26017 ft | 424 kts | 355° |
| 2026-05-07 01:51 | 47.43555 | 1.03081 | 26020 ft | 424 kts | 355° |
| 2026-05-07 01:51 | 47.46497 | 1.02834 | 26015 ft | 424 kts | 355° |
| 2026-05-07 01:51 | 47.49442 | 1.02586 | 26016 ft | 424 kts | 355° |
| 2026-05-07 01:51 | 47.52385 | 1.02338 | 26019 ft | 424 kts | 355° |
| 2026-05-07 01:52 | 47.55332 | 1.02090 | 26019 ft | 424 kts | 355° |
| 2026-05-07 01:52 | 47.58277 | 1.01841 | 26017 ft | 424 kts | 355° |
| 2026-05-07 01:52 | 47.61224 | 1.01592 | 26014 ft | 424 kts | 355° |
| 2026-05-07 01:52 | 47.64174 | 1.01342 | 26015 ft | 424 kts | 355° |
| 2026-05-07 01:53 | 47.67123 | 1.01093 | 26014 ft | 425 kts | 355° |
| 2026-05-07 01:53 | 47.70070 | 1.00843 | 26012 ft | 425 kts | 355° |
| 2026-05-07 01:53 | 47.73019 | 1.00593 | 26014 ft | 425 kts | 355° |
| 2026-05-07 01:53 | 47.75932 | 1.00345 | 26012 ft | 425 kts | 355° |
| 2026-05-07 01:54 | 47.78920 | 1.00091 | 26017 ft | 424 kts | 355° |
| 2026-05-07 01:54 | 47.81867 | 0.99840 | 26016 ft | 424 kts | 355° |
| 2026-05-07 01:54 | 47.84816 | 0.99589 | 26019 ft | 425 kts | 355° |
| 2026-05-07 01:54 | 47.87727 | 0.99340 | 26016 ft | 424 kts | 355° |
| 2026-05-07 01:55 | 47.90673 | 0.99089 | 26016 ft | 424 kts | 355° |
| 2026-05-07 01:55 | 47.93619 | 0.98837 | 26018 ft | 424 kts | 355° |
| 2026-05-07 01:55 | 47.96564 | 0.98585 | 26021 ft | 424 kts | 355° |
| 2026-05-07 01:55 | 47.99505 | 0.98332 | 26021 ft | 424 kts | 355° |
| 2026-05-07 01:56 | 48.02452 | 0.98079 | 26023 ft | 424 kts | 355° |
| 2026-05-07 01:56 | 48.05395 | 0.97826 | 26020 ft | 424 kts | 355° |
| 2026-05-07 01:56 | 48.08338 | 0.97573 | 26022 ft | 424 kts | 355° |
| 2026-05-07 01:56 | 48.11281 | 0.97320 | 26022 ft | 424 kts | 355° |
| 2026-05-07 01:57 | 48.14226 | 0.97066 | 26023 ft | 424 kts | 355° |
| 2026-05-07 01:57 | 48.17170 | 0.96812 | 26023 ft | 424 kts | 355° |
| 2026-05-07 01:57 | 48.20113 | 0.96557 | 26024 ft | 424 kts | 355° |
| 2026-05-07 01:57 | 48.23054 | 0.96303 | 26025 ft | 424 kts | 355° |
| 2026-05-07 01:58 | 48.25997 | 0.96048 | 26025 ft | 423 kts | 355° |
| 2026-05-07 01:58 | 48.28940 | 0.95792 | 26032 ft | 423 kts | 355° |
| 2026-05-07 01:58 | 48.31881 | 0.95537 | 26027 ft | 423 kts | 355° |
| 2026-05-07 01:58 | 48.34822 | 0.95281 | 26029 ft | 423 kts | 355° |
| 2026-05-07 01:59 | 48.37763 | 0.95025 | 26033 ft | 423 kts | 355° |
| 2026-05-07 01:59 | 48.40702 | 0.94769 | 26030 ft | 423 kts | 355° |
| 2026-05-07 01:59 | 48.43645 | 0.94513 | 26031 ft | 423 kts | 355° |
| 2026-05-07 01:59 | 48.46585 | 0.94256 | 26033 ft | 423 kts | 355° |
| 2026-05-07 02:00 | 48.49523 | 0.93999 | 26031 ft | 423 kts | 355° |
| 2026-05-07 02:00 | 48.52462 | 0.93742 | 26030 ft | 423 kts | 355° |
| 2026-05-07 02:00 | 48.55399 | 0.93484 | 26036 ft | 423 kts | 355° |
| 2026-05-07 02:00 | 48.58336 | 0.93227 | 26031 ft | 423 kts | 355° |
| 2026-05-07 02:01 | 48.61275 | 0.92969 | 26035 ft | 423 kts | 355° |
| 2026-05-07 02:01 | 48.64208 | 0.92711 | 26034 ft | 423 kts | 355° |
| 2026-05-07 02:01 | 48.67147 | 0.92452 | 26032 ft | 423 kts | 355° |
| 2026-05-07 02:01 | 48.70081 | 0.92193 | 26033 ft | 423 kts | 355° |
| 2026-05-07 02:02 | 48.73018 | 0.91934 | 26034 ft | 423 kts | 355° |
| 2026-05-07 02:02 | 48.75954 | 0.91674 | 26027 ft | 423 kts | 355° |
| 2026-05-07 02:02 | 48.78889 | 0.91415 | 26029 ft | 423 kts | 355° |
| 2026-05-07 02:02 | 48.81826 | 0.91155 | 26026 ft | 422 kts | 355° |
| 2026-05-07 02:03 | 48.84761 | 0.90895 | 26032 ft | 422 kts | 355° |
| 2026-05-07 02:03 | 48.87654 | 0.90638 | 26031 ft | 422 kts | 355° |
| 2026-05-07 02:03 | 48.90585 | 0.90377 | 26031 ft | 422 kts | 355° |
| 2026-05-07 02:03 | 48.93519 | 0.90116 | 26035 ft | 422 kts | 355° |
| 2026-05-07 02:04 | 48.96449 | 0.89855 | 26032 ft | 422 kts | 355° |
| 2026-05-07 02:04 | 48.99386 | 0.89593 | 26029 ft | 422 kts | 355° |
| 2026-05-07 02:04 | 49.02317 | 0.89331 | 26025 ft | 422 kts | 355° |
| 2026-05-07 02:04 | 49.05254 | 0.89069 | 26026 ft | 422 kts | 355° |
| 2026-05-07 02:05 | 49.08187 | 0.88806 | 26024 ft | 422 kts | 355° |
| 2026-05-07 02:05 | 49.11119 | 0.88544 | 26027 ft | 422 kts | 355° |
| 2026-05-07 02:05 | 49.14054 | 0.88280 | 26029 ft | 422 kts | 355° |
| 2026-05-07 02:05 | 49.16988 | 0.88017 | 26027 ft | 422 kts | 355° |
| 2026-05-07 02:06 | 49.19919 | 0.87753 | 26029 ft | 422 kts | 355° |
| 2026-05-07 02:06 | 49.22855 | 0.87489 | 26030 ft | 422 kts | 355° |
| 2026-05-07 02:06 | 49.25790 | 0.87224 | 26030 ft | 422 kts | 355° |
| 2026-05-07 02:06 | 49.28723 | 0.86959 | 26027 ft | 422 kts | 355° |
| 2026-05-07 02:07 | 49.31659 | 0.86694 | 26026 ft | 423 kts | 355° |
| 2026-05-07 02:07 | 49.37531 | 0.86163 | 26026 ft | 423 kts | 355° |
| 2026-05-07 02:07 | 49.40465 | 0.85896 | 26028 ft | 423 kts | 355° |
| 2026-05-07 02:08 | 49.43404 | 0.85630 | 26024 ft | 423 kts | 355° |
| 2026-05-07 02:08 | 49.46341 | 0.85363 | 26026 ft | 423 kts | 355° |
| 2026-05-07 02:08 | 49.49274 | 0.85096 | 26030 ft | 423 kts | 355° |
| 2026-05-07 02:08 | 49.52210 | 0.84828 | 26031 ft | 423 kts | 355° |
| 2026-05-07 02:09 | 49.55148 | 0.84560 | 26026 ft | 423 kts | 355° |
| 2026-05-07 02:09 | 49.58089 | 0.84291 | 26028 ft | 423 kts | 355° |
| 2026-05-07 02:09 | 49.61025 | 0.84023 | 26029 ft | 423 kts | 355° |
| 2026-05-07 02:09 | 49.63962 | 0.83754 | 26030 ft | 423 kts | 355° |
| 2026-05-07 02:10 | 49.66903 | 0.83484 | 26031 ft | 423 kts | 355° |
| 2026-05-07 02:10 | 49.69842 | 0.83215 | 26031 ft | 423 kts | 355° |
| 2026-05-07 02:10 | 49.72785 | 0.82944 | 26031 ft | 423 kts | 355° |
| 2026-05-07 02:10 | 49.75722 | 0.82674 | 26032 ft | 423 kts | 355° |
| 2026-05-07 02:11 | 49.78662 | 0.82403 | 26032 ft | 423 kts | 355° |
| 2026-05-07 02:11 | 49.81602 | 0.82132 | 26030 ft | 423 kts | 355° |
| 2026-05-07 02:11 | 49.84545 | 0.81860 | 26031 ft | 423 kts | 355° |
| 2026-05-07 02:11 | 49.87484 | 0.81588 | 26032 ft | 423 kts | 355° |
| 2026-05-07 02:12 | 49.90388 | 0.81320 | 26029 ft | 424 kts | 355° |
| 2026-05-07 02:12 | 49.93330 | 0.81047 | 26029 ft | 424 kts | 355° |
| 2026-05-07 02:12 | 49.96271 | 0.80774 | 26028 ft | 424 kts | 355° |
| 2026-05-07 02:12 | 49.99213 | 0.80501 | 26030 ft | 424 kts | 355° |
| 2026-05-07 02:13 | 50.02157 | 0.80227 | 26033 ft | 424 kts | 355° |
| 2026-05-07 02:13 | 50.05100 | 0.79953 | 26031 ft | 424 kts | 355° |
| 2026-05-07 02:13 | 50.08044 | 0.79678 | 26033 ft | 424 kts | 355° |
| 2026-05-07 02:13 | 50.10986 | 0.79403 | 26027 ft | 424 kts | 355° |
| 2026-05-07 02:14 | 50.13932 | 0.79128 | 26033 ft | 424 kts | 355° |
| 2026-05-07 02:14 | 50.16878 | 0.78852 | 26030 ft | 424 kts | 355° |
| 2026-05-07 02:14 | 50.19822 | 0.78576 | 26032 ft | 424 kts | 355° |
| 2026-05-07 02:14 | 50.22769 | 0.78300 | 26029 ft | 424 kts | 355° |
| 2026-05-07 02:15 | 50.25713 | 0.78023 | 26030 ft | 424 kts | 355° |
| 2026-05-07 02:15 | 50.28660 | 0.77746 | 26030 ft | 424 kts | 355° |
| 2026-05-07 02:15 | 50.31606 | 0.77468 | 26029 ft | 424 kts | 355° |
| 2026-05-07 02:15 | 50.34553 | 0.77190 | 26031 ft | 424 kts | 355° |
| 2026-05-07 02:16 | 50.37499 | 0.76912 | 26030 ft | 424 kts | 355° |
| 2026-05-07 02:16 | 50.40446 | 0.76634 | 26031 ft | 424 kts | 355° |
| 2026-05-07 02:16 | 50.43391 | 0.76355 | 26032 ft | 424 kts | 355° |
| 2026-05-07 02:16 | 50.46340 | 0.76075 | 26032 ft | 424 kts | 355° |
| 2026-05-07 02:17 | 50.49285 | 0.75796 | 26031 ft | 424 kts | 355° |
| 2026-05-07 02:17 | 50.52211 | 0.75264 | 26021 ft | 423 kts | 345° |
| 2026-05-07 02:17 | 50.54980 | 0.73787 | 26040 ft | 420 kts | 334° |
| 2026-05-07 02:17 | 50.57498 | 0.71497 | 26030 ft | 418 kts | 321° |
| 2026-05-07 02:18 | 50.59732 | 0.68591 | 26042 ft | 417 kts | 318° |
| 2026-05-07 02:18 | 50.61920 | 0.65594 | 26028 ft | 417 kts | 317° |
| 2026-05-07 02:18 | 50.64106 | 0.62586 | 26029 ft | 417 kts | 317° |
| 2026-05-07 02:18 | 50.66299 | 0.59592 | 26029 ft | 415 kts | 318° |
| 2026-05-07 02:19 | 50.68455 | 0.56676 | 26018 ft | 402 kts | 318° |
| 2026-05-07 02:19 | 50.70567 | 0.53836 | 26021 ft | 396 kts | 318° |
| 2026-05-07 02:19 | 50.72662 | 0.51022 | 26035 ft | 396 kts | 318° |
| 2026-05-07 02:19 | 50.74738 | 0.48233 | 25974 ft | 398 kts | 318° |
| 2026-05-07 02:20 | 50.76844 | 0.45399 | 25624 ft | 395 kts | 318° |
| 2026-05-07 02:20 | 50.78922 | 0.42600 | 25234 ft | 390 kts | 318° |
| 2026-05-07 02:20 | 50.80980 | 0.39822 | 24782 ft | 387 kts | 318° |
| 2026-05-07 02:20 | 50.83017 | 0.37067 | 24338 ft | 384 kts | 318° |
| 2026-05-07 02:21 | 50.85041 | 0.34325 | 23884 ft | 382 kts | 318° |
| 2026-05-07 02:21 | 50.87052 | 0.31599 | 23404 ft | 380 kts | 318° |
| 2026-05-07 02:21 | 50.89051 | 0.28885 | 22880 ft | 377 kts | 318° |
| 2026-05-07 02:21 | 50.91034 | 0.26190 | 22404 ft | 374 kts | 318° |
| 2026-05-07 02:22 | 50.92999 | 0.23516 | 21949 ft | 371 kts | 318° |
| 2026-05-07 02:22 | 50.94949 | 0.20860 | 21502 ft | 368 kts | 318° |
| 2026-05-07 02:22 | 50.96877 | 0.18231 | 21064 ft | 365 kts | 318° |
| 2026-05-07 02:22 | 50.98796 | 0.15612 | 20621 ft | 362 kts | 318° |
| 2026-05-07 02:23 | 51.00701 | 0.13009 | 20228 ft | 360 kts | 318° |
| 2026-05-07 02:23 | 51.02631 | 0.10501 | 19793 ft | 359 kts | 322° |
| 2026-05-07 02:23 | 51.04658 | 0.08183 | 19358 ft | 359 kts | 324° |
| 2026-05-07 02:23 | 51.06724 | 0.05933 | 18912 ft | 360 kts | 325° |
| 2026-05-07 02:24 | 51.08799 | 0.03693 | 18464 ft | 360 kts | 325° |
| 2026-05-07 02:24 | 51.10864 | 0.01453 | 17971 ft | 359 kts | 325° |
| 2026-05-07 02:24 | 51.12913 | -0.00788 | 17488 ft | 356 kts | 324° |
| 2026-05-07 02:24 | 51.14945 | -0.03025 | 17029 ft | 354 kts | 324° |
| 2026-05-07 02:25 | 51.16956 | -0.05250 | 16588 ft | 350 kts | 324° |
| 2026-05-07 02:25 | 51.18950 | -0.07463 | 16148 ft | 348 kts | 324° |
| 2026-05-07 02:25 | 51.20925 | -0.09660 | 15719 ft | 345 kts | 324° |
| 2026-05-07 02:25 | 51.22887 | -0.11846 | 15292 ft | 343 kts | 324° |
| 2026-05-07 02:26 | 51.24834 | -0.14018 | 14869 ft | 341 kts | 324° |
| 2026-05-07 02:26 | 51.26770 | -0.16180 | 14450 ft | 339 kts | 324° |
| 2026-05-07 02:26 | 51.28695 | -0.18332 | 14023 ft | 337 kts | 324° |
| 2026-05-07 02:26 | 51.30608 | -0.20473 | 13566 ft | 335 kts | 324° |
| 2026-05-07 02:27 | 51.32512 | -0.22606 | 13111 ft | 333 kts | 324° |
| 2026-05-07 02:27 | 51.34404 | -0.24727 | 12675 ft | 331 kts | 324° |
| 2026-05-07 02:27 | 51.36281 | -0.26833 | 12261 ft | 328 kts | 324° |
| 2026-05-07 02:27 | 51.38140 | -0.28922 | 11851 ft | 325 kts | 324° |
| 2026-05-07 02:28 | 51.39985 | -0.30994 | 11462 ft | 323 kts | 326° |
| 2026-05-07 02:28 | 51.42011 | -0.32483 | 11030 ft | 322 kts | 347° |
| 2026-05-07 02:28 | 51.44225 | -0.32578 | 10651 ft | 320 kts | 9° |
| 2026-05-07 02:28 | 51.46311 | -0.31408 | 10253 ft | 319 kts | 30° |
| 2026-05-07 02:29 | 51.48127 | -0.29371 | 9955 ft | 315 kts | 36° |
| 2026-05-07 02:29 | 51.49817 | -0.27284 | 9963 ft | 300 kts | 37° |
| 2026-05-07 02:29 | 51.51407 | -0.25292 | 9902 ft | 288 kts | 37° |
| 2026-05-07 02:29 | 51.52960 | -0.23352 | 9814 ft | 278 kts | 37° |
| 2026-05-07 02:30 | 51.54471 | -0.21475 | 9575 ft | 270 kts | 36° |
| 2026-05-07 02:30 | 51.55955 | -0.19638 | 9064 ft | 270 kts | 37° |
| 2026-05-07 02:30 | 51.57447 | -0.17799 | 8541 ft | 270 kts | 37° |
| 2026-05-07 02:30 | 51.58939 | -0.15960 | 8062 ft | 269 kts | 37° |
| 2026-05-07 02:31 | 51.60424 | -0.14133 | 7588 ft | 268 kts | 37° |
| 2026-05-07 02:31 | 51.61904 | -0.12312 | 7128 ft | 267 kts | 38° |
| 2026-05-07 02:31 | 51.63376 | -0.10498 | 6696 ft | 265 kts | 38° |
| 2026-05-07 02:31 | 51.64837 | -0.08698 | 6265 ft | 263 kts | 38° |
| 2026-05-07 02:32 | 51.66286 | -0.06912 | 5820 ft | 261 kts | 38° |
| 2026-05-07 02:32 | 51.67722 | -0.05140 | 5398 ft | 259 kts | 38° |
| 2026-05-07 02:32 | 51.69145 | -0.03383 | 4961 ft | 257 kts | 38° |
| 2026-05-07 02:32 | 51.70547 | -0.01650 | 4617 ft | 251 kts | 38° |
| 2026-05-07 02:33 | 51.71923 | 0.00050 | 4275 ft | 247 kts | 38° |
| 2026-05-07 02:33 | 51.73267 | 0.01713 | 3978 ft | 239 kts | 38° |
| 2026-05-07 02:33 | 51.74556 | 0.03308 | 3682 ft | 228 kts | 38° |
| 2026-05-07 02:33 | 51.75794 | 0.04836 | 3380 ft | 219 kts | 37° |
| 2026-05-07 02:34 | 51.77000 | 0.06285 | 3106 ft | 215 kts | 39° |
| 2026-05-07 02:34 | 51.78127 | 0.07852 | 2836 ft | 212 kts | 44° |
| 2026-05-07 02:34 | 51.79197 | 0.09459 | 2588 ft | 208 kts | 45° |
| 2026-05-07 02:34 | 51.80225 | 0.11016 | 2430 ft | 197 kts | 44° |
| 2026-05-07 02:35 | 51.81199 | 0.12486 | 2174 ft | 186 kts | 45° |
| 2026-05-07 02:35 | 51.82117 | 0.13869 | 1933 ft | 175 kts | 45° |
| 2026-05-07 02:35 | 51.82965 | 0.15146 | 1697 ft | 164 kts | 45° |
| 2026-05-07 02:35 | 51.83762 | 0.16347 | 1478 ft | 148 kts | 45° |
| 2026-05-07 02:36 | 51.84498 | 0.17457 | 1266 ft | 142 kts | 45° |
| 2026-05-07 02:36 | 51.85227 | 0.18556 | 1066 ft | 144 kts | 44° |
| 2026-05-07 02:36 | 51.85957 | 0.19660 | 831 ft | 147 kts | 43° |
| 2026-05-07 02:36 | 51.86704 | 0.20771 | 635 ft | 144 kts | 43° |
| 2026-05-07 02:37 | 51.87442 | 0.21880 | 437 ft | 147 kts | 43° |
| 2026-05-07 02:37 | 51.88188 | 0.23014 | 335 ft | 139 kts | 43° |
| 2026-05-07 02:37 | 51.88813 | 0.23949 | 335 ft | 105 kts | 43° |
| 2026-05-07 02:37 | 51.89068 | 0.24414 | 338 ft | 33 kts | 65° |
| 2026-05-07 02:38 | 51.89146 | 0.24705 | 337 ft | 27 kts | 70° |
| 2026-05-07 02:38 | 51.89163 | 0.24786 | 334 ft | 0 kts | 72° |
| 2026-05-07 02:39 | 51.89166 | 0.24819 | 336 ft | 11 kts | 88° |
| 2026-05-07 02:40 | 51.89161 | 0.24931 | 347 ft | 10 kts | 70° |
| 2026-05-07 02:40 | 51.89237 | 0.25102 | 349 ft | 23 kts | 58° |
| 2026-05-07 02:40 | 51.89341 | 0.25294 | 348 ft | 22 kts | 42° |
| 2026-05-07 02:40 | 51.89409 | 0.25491 | 345 ft | 22 kts | 122° |
| 2026-05-07 02:41 | 51.89323 | 0.25688 | 351 ft | 21 kts | 131° |
| 2026-05-07 02:41 | 51.89260 | 0.25824 | 356 ft | 7 kts | 74° |
| 2026-05-07 02:41 | 51.89291 | 0.25868 | 349 ft | 0 kts | 42° |